Tiempo atmosférico en la estación meteorológica de Fuente De Piedra, Málaga (423 m.)



Fecha
DESCASC
Temp. máxima en grados centígrados (hora)
DESCASC
Temp. mínima en grados centígrados (hora)
DESCASC
Temp. media en grados centígrados
DESCASC
Racha de viento máxima en m/sg (hora)
DESCASC
Velocidad máxima media en intervalos de 10 minutos(hora)
DESCASC
Precipitaciones diarias en mm
DESCASC
Precipitaciones de 00:00 a 06:00 en mm
DESCASC
Precipitaciones de 06:00 a 12:00 en mm
DESCASC
Precipitaciones de 12:00 a 18:00 en mm
DESCASC
Precipitaciones de 18:00 a 24:00 en mm
DESCASC
17-09-2020 29.2 (14:40) 21.2 (04:10) 25.2 15.83 (21:10) 10.83 (19:50) 0 0 0 0 0
16-09-2020 30.4 (16:20) 14.2 (08:20) 22.3 12.22 (13:30) 8.61 (17:20) 0 0 0 0 0
15-09-2020 30.2 (16:50) 16.8 (08:20) 23.5 10 (14:30) 6.67 (00:10) 0 0 0 0 0
14-09-2020 29.4 (14:10) 21.3 (00:00) 25.3 15.83 (13:00) 11.11 (13:00) 0 0 0 0 0
13-09-2020 30.1 (15:10) 21.3 (00:00) 25.7 13.89 (13:30) 9.72 (13:30) 0 0 0 0 0
12-09-2020 32.5 (16:40) 20.2 (00:00) 26.4 13.61 (14:20) 8.61 (12:40) 0 0 0 0 0
11-09-2020 32 (16:50) 15.9 (00:00) 23.9 10.28 (15:40) 7.22 (15:40) 0 0 0 0 0
10-09-2020 33.1 (16:50) 15.2 (00:00) 24.1 6.94 (16:40) 3.89 (21:10) 0 0 0 0 0
09-09-2020 30.7 (18:30) 17.6 (00:00) 24.2 12.78 (00:50) 8.61 (00:40) 0 0 0 0 0
08-09-2020 27.4 (14:50) 19.7 (00:00) 23.6 15.56 (13:10) 10.56 (12:30) 0 0 0 0 0
07-09-2020 34.9 (17:40) 16.3 (08:10) 25.6 8.89 (18:00) 4.72 (18:30) 0 0 0 0 0
06-09-2020 30.3 (16:50) 19.5 (00:00) 24.9 13.06 (00:50) 8.89 (00:50) 0 0 0 0 0
05-09-2020 30.4 (16:50) 19.5 (00:00) 24.9 12.5 (04:20) 8.33 (04:20) 0 0 0 0 0
04-09-2020 30.1 (15:00) 18.5 (00:00) 24.3 14.44 (16:20) 9.72 (14:10) 0 0 0 0 0
03-09-2020 29.8 (15:00) 18.9 (00:00) 24.3 14.17 (16:10) 8.89 (17:50) 0 0 0 0 0
02-09-2020 31 (15:50) 12.8 (00:00) 21.9 11.94 (17:50) 8.61 (17:40) 0 0 0 0 0
01-09-2020 30.2 (19:10) 14.5 (00:00) 22.4 7.22 (00:10) 4.44 (00:10) 0 0 0 0 0
31-08-2020 28.5 (16:30) 17.3 (00:00) 22.9 12.5 (15:40) 8.33 (17:10) 0 0 0 0 0
30-08-2020 29.7 (17:30) 12.8 (00:00) 21.3 10 (17:40) 5.83 (20:00) 0 0 0 0 0
29-08-2020 27.3 (18:40) 16.3 (00:00) 21.8 13.06 (15:00) 7.78 (15:30) 0 0 0 0 0
28-08-2020 33.2 (17:20) 18.5 (00:00) 25.9 12.22 (19:50) 8.06 (19:50) 0 0 0 0 0
27-08-2020 39.2 (15:20) 19 (00:00) 29.1 11.39 (18:00) 6.67 (18:10) 0 0 0 0 0
26-08-2020 39.7 (17:20) 17.9 (00:00) 28.8 7.78 (18:20) 5.56 (18:20) 0 0 0 0 0
25-08-2020 35.5 (16:40) 20.1 (00:00) 27.8 9.72 (15:10) 5.83 (14:20) 0 0 0 0 0
24-08-2020 33 (17:40) 20.3 (00:00) 26.6 11.67 (14:50) 7.22 (13:10) 0 0 0 0 0
23-08-2020 35.6 (14:50) 17.7 (00:00) 26.6 9.44 (15:30) 5.83 (17:50) 0 0 0 0 0
22-08-2020 36.5 (17:40) 16.8 (00:00) 26.6 6.94 (17:00) 3.89 (16:00) 0 0 0 0 0
21-08-2020 35.7 (17:10) 14.3 (00:00) 25 8.61 (18:10) 4.72 (18:10) 0 0 0 0 0
20-08-2020 37.4 (15:20) 17.2 (00:00) 27.3 9.72 (20:00) 6.67 (20:00) 0 0 0 0 0

Gráficas

Temp. máximas Temp. mínimas Temp. medias Precipitaciones Rachas de viento máximas Velocidades máximas media en intervalos de 10 minutos

Datos horarios

Fecha y hora oficial Temperatura (ºC) Velocidad del viento (km/h) Dirección del viento Racha (km/h) Dirección de racha Precipitación (mm) Presión (hPa) Tendencia (hPa) Humedad (%)
2020-09-18 23:00:00 19.9 16 Sur 24 Sur 0 -- -- 72
2020-09-18 22:00:00 20.2 17 Sur 30 Sur 0 -- -- 71
2020-09-18 21:00:00 20.9 19 Sur 39 Sur 0 -- -- 65
2020-09-18 20:00:00 22 24 Sur 46 Sur 0 -- -- 60
2020-09-18 19:00:00 23.1 29 Sur 45 Sudeste 0 -- -- 58
2020-09-18 18:00:00 24.1 30 Sur 44 Sur 0 -- -- 52
2020-09-18 17:00:00 24.3 33 Sur 49 Sur 0 -- -- 56
2020-09-18 16:00:00 23 33 Sur 59 Sur 0 -- -- 65
2020-09-18 15:00:00 25 44 Sur 67 Sur 0 -- -- 56
2020-09-18 14:00:00 25.4 39 Sur 60 Sur 0 -- -- 55
2020-09-18 13:00:00 24.8 36 Sur 55 Sudeste 0 -- -- 58
2020-09-18 12:00:00 23.2 33 Sur 57 Sur 0 -- -- 64
2020-09-18 11:00:00 21.7 28 Sur 44 Sur 0 -- -- 71
2020-09-18 10:00:00 19.6 28 Sur 40 Sur 0 -- -- 77
2020-09-18 09:00:00 19.2 18 Sur 29 Sudeste 0 -- -- 79
2020-09-18 08:00:00 19.2 13 Sur 24 Sur 0 -- -- 77
2020-09-18 07:00:00 19.1 12 Sudeste 26 Sudeste 0 -- -- 77
2020-09-18 06:00:00 19.1 15 Sur 40 Sudeste 0 -- -- 77
2020-09-18 05:00:00 19.9 26 Sur 45 Sudeste 0 -- -- 71
2020-09-18 04:00:00 19.9 37 Sur 58 Sur 0 -- -- 70
2020-09-18 03:00:00 20.6 37 Sur 60 Sur 0 -- -- 68
2020-09-18 02:00:00 21.4 38 Sur 57 Sur 0 -- -- 62
2020-09-18 01:00:00 21.7 31 Sur 47 Sur 0 -- -- 60
2020-09-18 00:00:00 21.8 28 Sur 43 Sudeste 0 -- -- 60
2020-09-17 23:00:00 22 27 Sur 42 Sur 0 -- -- 60
2020-09-17 22:00:00 22.1 28 Sur 57 Sur 0 -- -- 63
2020-09-17 21:00:00 22.8 36 Sur 56 Sur 0 -- -- 60
2020-09-17 20:00:00 24 35 Sur 53 Sur 0 -- -- 58
2020-09-17 19:00:00 25.2 31 Sur 50 Sur 0 -- -- 55
2020-09-17 18:00:00 26.7 29 Sur 53 Sur 0 -- -- 50
2020-09-17 17:00:00 27.8 31 Sur 46 Sur 0 -- -- 45
2020-09-17 16:00:00 28 26 Sur 44 Sur 0 -- -- 46
2020-09-17 15:00:00 29.1 29 Sur 44 Sur 0 -- -- 45
2020-09-17 14:00:00 27.2 25 Sur 44 Sur 0 -- -- 54
2020-09-17 13:00:00 26.7 27 Sur 45 Sur 0 -- -- 53
2020-09-17 12:00:00 25.2 32 Sur 46 Sur 0 -- -- 59
2020-09-17 11:00:00 23 28 Sur 48 Sur 0 -- -- 69
2020-09-17 10:00:00 22.8 32 Sur 46 Sur 0 -- -- 69
2020-09-17 09:00:00 22 30 Sur 43 Sur 0 -- -- 72
2020-09-17 08:00:00 22.2 28 Sur 40 Sur 0 -- -- 69
2020-09-17 07:00:00 21.8 29 Sur 47 Sur 0 -- -- 72
2020-09-17 06:00:00 21.6 30 Sur 43 Sur 0 -- -- 73
2020-09-17 05:00:00 21.3 24 Sur 37 Sudeste 0 -- -- 76
2020-09-17 04:00:00 21.4 22 Sur 39 Sur 0 -- -- 75
2020-09-17 03:00:00 21.7 17 Sur 34 Sur 0 -- -- 74
2020-09-17 02:00:00 21.9 13 Sur 33 Sur 0 -- -- 70
2020-09-17 01:00:00 22.5 14 Sur 25 Sur 0 -- -- 66
2020-09-17 00:00:00 22.6 10 Sur 37 Sudeste 0 -- -- 64
2020-09-16 23:00:00 22.6 27 Sur 41 Sudeste 0 -- -- 67
2020-09-16 22:00:00 23.7 9 Sur 21 Sur 0 -- -- 57
2020-09-16 21:00:00 24 14 Sur 33 Sur 0 -- -- 53
2020-09-16 20:00:00 25.5 19 Sur 35 Sur 0 -- -- 46
2020-09-16 19:00:00 27.1 25 Sudeste 40 Sur 0 -- -- 31
2020-09-16 18:00:00 28.4 24 Sur 41 Sur 0 -- -- 27
2020-09-16 17:00:00 29.7 25 Sur 39 Sur 0 -- -- 27
2020-09-16 16:00:00 29.7 26 Sur 40 Sur 0 -- -- 27
2020-09-16 15:00:00 29.4 22 Sur 42 Sur 0 -- -- 34
2020-09-16 14:00:00 27.8 28 Sur 44 Sur 0 -- -- 39
2020-09-16 13:00:00 26.8 25 Sur 37 Sur 0 -- -- 42
2020-09-16 12:00:00 26.3 20 Sur 33 Sur 0 -- -- 45
2020-09-16 11:00:00 24.4 5 Sur 19 Sur 0 -- -- 53
2020-09-16 10:00:00 18.9 2 Sur 4 Sudoeste 0 -- -- 64
2020-09-16 09:00:00 15.9 2 Nordeste 5 Nordeste 0 -- -- 72
2020-09-16 08:00:00 14.8 2 Sudoeste 4 Nordeste 0 -- -- 73
2020-09-16 07:00:00 14.9 4 Sudoeste 9 Sudoeste 0 -- -- 71
2020-09-16 06:00:00 15.7 0 Calma 4 Nordeste 0 -- -- 66
2020-09-16 05:00:00 17 0 Calma 5 Norte 0 -- -- 68
2020-09-16 04:00:00 17.7 2 Sudeste 4 Sudeste 0 -- -- 67
2020-09-16 03:00:00 18.2 3 Sudeste 6 Sur 0 -- -- 65
2020-09-16 02:00:00 18.8 5 Sur 8 Sur 0 -- -- 63
2020-09-16 01:00:00 19.9 4 Sudoeste 12 Oeste 0 -- -- 57
2020-09-16 00:00:00 20.5 4 Sur 8 Sur 0 -- -- 54
2020-09-15 23:00:00 21.9 4 Sur 10 Sur 0 -- -- 49
2020-09-15 22:00:00 23 11 Sur 14 Sudoeste 0 -- -- 49
2020-09-15 21:00:00 24.9 9 Sur 22 Sur 0 -- -- 44
2020-09-15 20:00:00 27 17 Sur 27 Sur 0 -- -- 44
2020-09-15 19:00:00 29.2 17 Sur 27 Sudeste 0 -- -- 35
2020-09-15 18:00:00 29.3 21 Sur 32 Sudeste 0 -- -- 33
2020-09-15 17:00:00 30.2 18 Sur 33 Sur 0 -- -- 35
2020-09-15 16:00:00 29.7 18 Sur 30 Sudoeste 0 -- -- 39
2020-09-15 15:00:00 29.3 18 Sur 36 Sur 0 -- -- 42
2020-09-15 14:00:00 28.2 20 Sur 35 Sur 0 -- -- 46
2020-09-15 13:00:00 26.2 14 Sur 26 Sur 0 -- -- 53
2020-09-15 12:00:00 25 5 Noroeste 13 Oeste 0 -- -- 56
2020-09-15 11:00:00 23.6 6 Nordeste 14 Norte 0 -- -- 62
2020-09-15 10:00:00 21.3 8 Nordeste 12 Nordeste 0 -- -- 73
2020-09-15 09:00:00 17.6 4 Nordeste 8 Norte 0 -- -- 81
2020-09-15 08:00:00 17.1 5 Nordeste 9 Nordeste 0 -- -- 81
2020-09-15 07:00:00 18.1 4 Este 13 Este 0 -- -- 78
2020-09-15 06:00:00 19.6 9 Sudeste 22 Sur 0 -- -- 80
2020-09-15 05:00:00 20.1 16 Sur 23 Sur 0 -- -- 77
2020-09-15 04:00:00 20.4 3 Sudoeste 18 Sudeste 0 -- -- 71
2020-09-15 03:00:00 20.8 7 Sur 26 Sudeste 0 -- -- 66
2020-09-15 02:00:00 21.4 6 Sudoeste 33 Sur 0 -- -- 64
2020-09-15 01:00:00 22 9 Sur 35 Sur 0 -- -- 59
2020-09-15 00:00:00 22.3 20 Sur 37 Sur 0 -- -- 57
2020-09-14 23:00:00 22.7 8 Sur 25 Sur 0 -- -- 56
2020-09-14 22:00:00 22.9 14 Sur 29 Sudoeste 0 -- -- 54
2020-09-14 21:00:00 24 17 Sur 35 Sur 0 -- -- 51
2020-09-14 20:00:00 25 23 Sur 36 Sur 0 -- -- 50
2020-09-14 19:00:00 27 18 Sur 33 Sur 0 -- -- 40
2020-09-14 18:00:00 26.9 20 Sur 42 Sur 0 -- -- 40
2020-09-14 17:00:00 27.2 30 Sur 49 Sur 0 -- -- 41
2020-09-14 16:00:00 26.8 27 Sur 43 Sur 0 -- -- 42
2020-09-14 15:00:00 27.1 30 Sur 45 Sur 0 -- -- 40
2020-09-14 14:00:00 28.1 32 Sur 50 Sudeste 0 -- -- 38
2020-09-14 13:00:00 27.6 40 Sur 57 Sur 0 -- -- 40
2020-09-14 12:00:00 26.7 32 Sur 53 Sur 0 -- -- 43
2020-09-14 11:00:00 24.7 28 Sur 43 Sur 0 -- -- 51
2020-09-14 10:00:00 23.1 29 Sur 42 Sur 0 -- -- 59
2020-09-14 09:00:00 22 20 Sur 33 Sur 0 -- -- 63
2020-09-14 08:00:00 21.9 21 Sur 33 Sudeste 0 -- -- 63
2020-09-14 07:00:00 21.5 22 Sur 33 Sur 0 -- -- 66
2020-09-14 06:00:00 21.4 23 Sur 36 Sur 0 -- -- 68
2020-09-14 05:00:00 21.5 24 Sur 38 Sur 0 -- -- 67
2020-09-14 04:00:00 21.9 21 Sur 37 Sur 0 -- -- 64
2020-09-14 03:00:00 21.7 21 Sur 39 Sur 0 -- -- 64
2020-09-14 02:00:00 21.9 18 Sur 44 Sur 0 -- -- 63
2020-09-14 01:00:00 22.9 28 Sur 52 Sur 0 -- -- 57
2020-09-14 00:00:00 23.5 27 Sur 50 Sur 0 -- -- 54
2020-09-13 23:00:00 23.6 26 Sur 43 Sur 0 -- -- 54
2020-09-13 22:00:00 24.1 27 Sur 42 Sur 0 -- -- 50
2020-09-13 21:00:00 24.7 25 Sur 42 Sur 0 -- -- 46
2020-09-13 20:00:00 26.2 26 Sur 45 Sur 0 -- -- 42
2020-09-13 19:00:00 28.2 31 Sur 46 Sur 0 -- -- 37
2020-09-13 18:00:00 29.6 27 Sur 45 Sur 0 -- -- 35
2020-09-13 17:00:00 29.2 32 Sur 49 Sur 0 -- -- 35
2020-09-13 16:00:00 29.7 33 Sur 47 Sur 0 -- -- 34
2020-09-13 15:00:00 30 31 Sur 49 Sudeste 0 -- -- 33
2020-09-13 14:00:00 27.7 32 Sur 50 Sur 0 -- -- 37
2020-09-13 13:00:00 28.2 29 Sur 45 Sur 0 -- -- 37
2020-09-13 12:00:00 27.4 28 Sur 48 Sur 0 -- -- 40
2020-09-13 11:00:00 26 25 Sur 39 Sur 0 -- -- 42
2020-09-13 10:00:00 24.5 24 Sur 37 Sur 0 -- -- 46
2020-09-13 09:00:00 23.3 16 Sur 29 Sur 0 -- -- 48
2020-09-13 08:00:00 22.6 19 Sur 27 Sur 0 -- -- 49
2020-09-13 07:00:00 21.9 17 Sur 27 Sur 0 -- -- 54
2020-09-13 06:00:00 21.6 5 Sudeste 17 Sudeste 0 -- -- 58
2020-09-13 05:00:00 21.6 14 Sur 30 Sur 0 -- -- 60
2020-09-13 04:00:00 21.8 23 Sur 35 Sur 0 -- -- 60
2020-09-13 03:00:00 22.2 23 Sur 35 Sur 0 -- -- 58
2020-09-13 02:00:00 22.5 22 Sur 39 Sur 0 -- -- 56
2020-09-13 01:00:00 23.3 19 Sur 35 Sur 0 -- -- 50
2020-09-13 00:00:00 24 17 Sur 30 Sur 0 -- -- 45
2020-09-12 23:00:00 24.9 12 Sur 26 Sur 0 -- -- 39
2020-09-12 22:00:00 25 13 Sur 27 Sur 0 -- -- 38
2020-09-12 21:00:00 25.6 19 Sur 33 Sur 0 -- -- 37
2020-09-12 20:00:00 27.1 24 Sur 40 Sur 0 -- -- 32
2020-09-12 19:00:00 29 28 Sur 39 Sur 0 -- -- 28
2020-09-12 18:00:00 31.4 27 Sur 44 Sur 0 -- -- 25
2020-09-12 17:00:00 32.4 30 Sur 43 Sur 0 -- -- 24
2020-09-12 16:00:00 32.2 28 Sur 42 Sur 0 -- -- 24
2020-09-12 15:00:00 31.9 30 Sur 49 Sur 0 -- -- 25
2020-09-12 14:00:00 31.7 30 Sur 45 Sur 0 -- -- 24
2020-09-12 13:00:00 30.6 30 Sur 46 Sur 0 -- -- 26
2020-09-12 12:00:00 29.4 26 Sur 41 Sur 0 -- -- 27
2020-09-12 11:00:00 28.3 20 Sur 30 Sur 0 -- -- 29
2020-09-12 10:00:00 25.5 13 Sur 20 Sudeste 0 -- -- 33
2020-09-12 09:00:00 22.9 12 Sur 18 Sur 0 -- -- 38
2020-09-12 08:00:00 20.8 17 Sur 20 Sur 0 -- -- 43
2020-09-12 07:00:00 21.3 15 Sur 23 Sur 0 -- -- 42
2020-09-12 06:00:00 20.7 13 Sur 22 Sur 0 -- -- 44
2020-09-12 05:00:00 22 19 Sur 26 Sur 0 -- -- 40
2020-09-12 04:00:00 22 13 Sur 19 Sur 0 -- -- 39
2020-09-12 03:00:00 22.1 11 Sudoeste 22 Sur 0 -- -- 39
2020-09-12 02:00:00 21.2 5 Sudoeste 10 Sur 0 -- -- 42
2020-09-12 01:00:00 22 5 Sudoeste 22 Sur 0 -- -- 39
2020-09-12 00:00:00 22.4 9 Sur 17 Sur 0 -- -- 38
2020-09-11 23:00:00 23.1 8 Sur 17 Sur 0 -- -- 36
2020-09-11 22:00:00 24.8 9 Sur 19 Sur 0 -- -- 32
2020-09-11 21:00:00 26 9 Sur 26 Sur 0 -- -- 28
2020-09-11 20:00:00 27.7 18 Sur 33 Sur 0 -- -- 25
2020-09-11 19:00:00 29.4 19 Sur 32 Sur 0 -- -- 23
2020-09-11 18:00:00 30.6 20 Sur 35 Sur 0 -- -- 24
2020-09-11 17:00:00 31.4 24 Sur 37 Sur 0 -- -- 23
2020-09-11 16:00:00 31.6 23 Sur 37 Sur 0 -- -- 26
2020-09-11 15:00:00 31.3 21 Sur 35 Sur 0 -- -- 27
2020-09-11 14:00:00 30.1 22 Sur 36 Sur 0 -- -- 28
2020-09-11 13:00:00 30.1 17 Sur 33 Sur 0 -- -- 29
2020-09-11 12:00:00 28 20 Sur 35 Sur 0 -- -- 33
2020-09-11 11:00:00 26.3 17 Sur 28 Sur 0 -- -- 35
2020-09-11 10:00:00 23.3 14 Sur 22 Sur 0 -- -- 45
2020-09-11 09:00:00 17.7 3 Sur 8 Sudoeste 0 -- -- 59
2020-09-11 08:00:00 16.1 6 Sur 8 Sur 0 -- -- 63
2020-09-11 07:00:00 15.9 0 Calma 4 Sudoeste 0 -- -- 62
2020-09-11 06:00:00 16.3 0 Calma 5 Sudoeste 0 -- -- 61
2020-09-11 05:00:00 17.1 3 Sur 4 Sur 0 -- -- 59
2020-09-11 04:00:00 17.8 0 Calma 8 Sudoeste 0 -- -- 57
2020-09-11 03:00:00 18.2 6 Sur 10 Sur 0 -- -- 56
2020-09-11 02:00:00 19.1 8 Sur 13 Sudoeste 0 -- -- 52
2020-09-11 01:00:00 20.7 9 Sudoeste 14 Oeste 0 -- -- 49
2020-09-11 00:00:00 21.1 10 Sur 16 Sudoeste 0 -- -- 49
2020-09-10 23:00:00 22.4 10 Sudoeste 13 Sudoeste 0 -- -- 45
2020-09-10 22:00:00 24.5 9 Sur 20 Sur 0 -- -- 40
2020-09-10 21:00:00 27.3 10 Sur 16 Sur 0 -- -- 33
2020-09-10 20:00:00 30.3 11 Noroeste 21 Noroeste 0 -- -- 23
2020-09-10 19:00:00 31.5 10 Norte 20 Norte 0 -- -- 22
2020-09-10 18:00:00 32.5 8 Noroeste 24 Noroeste 0 -- -- 21
2020-09-10 17:00:00 33 9 Noroeste 25 Noroeste 0 -- -- 20
2020-09-10 16:00:00 32.3 12 Noroeste 24 Norte 0 -- -- 22
2020-09-10 15:00:00 32.5 10 Norte 21 Norte 0 -- -- 22
2020-09-10 14:00:00 30.8 7 Sudoeste 13 Sudoeste 0 -- -- 28
2020-09-10 13:00:00 28.7 6 Sudoeste 12 Sudoeste 0 -- -- 31
2020-09-10 12:00:00 26.5 6 Oeste 10 Oeste 0 -- -- 35
2020-09-10 11:00:00 23.9 4 Oeste 6 Oeste 0 -- -- 42
2020-09-10 10:00:00 21.2 3 Sudoeste 5 Sur 0 -- -- 48
2020-09-10 09:00:00 17.8 0 Calma 4 Norte 0 -- -- 56
2020-09-10 08:00:00 15.6 2 Nordeste 6 Nordeste 0 -- -- 62
2020-09-10 07:00:00 15.8 4 Noroeste 8 Oeste 0 -- -- 59
2020-09-10 06:00:00 16.6 3 Sudoeste 8 Sudoeste 0 -- -- 55
2020-09-10 05:00:00 17.4 3 Sudoeste 7 Sudoeste 0 -- -- 50
2020-09-10 04:00:00 17.7 4 Sudoeste 15 Sur 0 -- -- 50
2020-09-10 03:00:00 18.1 7 Sudoeste 14 Sur 0 -- -- 50
2020-09-10 02:00:00 18 7 Sur 19 Sudoeste 0 -- -- 52
2020-09-10 01:00:00 19.6 12 Sudoeste 17 Sudoeste 0 -- -- 48
2020-09-10 00:00:00 20.1 9 Sudoeste 15 Sudoeste 0 -- -- 48
2020-09-09 23:00:00 20.8 10 Sur 17 Sudoeste 0 -- -- 47
2020-09-09 22:00:00 22.3 10 Sur 15 Sur 0 -- -- 42
2020-09-09 21:00:00 24.8 12 Sur 21 Sur 0 -- -- 37
2020-09-09 20:00:00 27.5 15 Sur 22 Sur 0 -- -- 33
2020-09-09 19:00:00 29.8 13 Sur 23 Sur 0 -- -- 29
2020-09-09 18:00:00 30.4 6 Sur 20 Sur 0 -- -- 29
2020-09-09 17:00:00 30.3 12 Sur 24 Sudoeste 0 -- -- 29
2020-09-09 16:00:00 30.1 9 Sur 28 Sur 0 -- -- 29
2020-09-09 15:00:00 29.3 14 Sur 33 Sur 0 -- -- 31
2020-09-09 14:00:00 28.6 13 Sur 34 Sudoeste 0 -- -- 34
2020-09-09 13:00:00 27.1 20 Sur 31 Sur 0 -- -- 41
2020-09-09 12:00:00 25.8 19 Sur 30 Sur 0 -- -- 47
2020-09-09 11:00:00 23.6 16 Sur 31 Sur 0 -- -- 56
2020-09-09 10:00:00 21.3 14 Sur 23 Sur 0 -- -- 68
2020-09-09 09:00:00 19 13 Sur 20 Sur 0 -- -- 78
2020-09-09 08:00:00 17.6 4 Sur 21 Sur 0 -- -- 81
2020-09-09 07:00:00 18.1 13 Sur 23 Sur 0 -- -- 81
2020-09-09 06:00:00 18.5 14 Sur 25 Sur 0 -- -- 79
2020-09-09 05:00:00 18.7 17 Sur 32 Sur 0 -- -- 78
2020-09-09 04:00:00 19 19 Sur 35 Sur 0 -- -- 78
2020-09-09 03:00:00 19.2 24 Sur 37 Sur 0 -- -- 77
2020-09-09 02:00:00 19.3 26 Sur 40 Sur 0 -- -- 77
2020-09-09 01:00:00 19.6 29 Sur 46 Sur 0 -- -- 75
2020-09-09 00:00:00 19.7 27 Sur 40 Sur 0 -- -- 71
2020-09-08 23:00:00 20 26 Sur 46 Sur 0 -- -- 65
2020-09-08 22:00:00 20.7 24 Sur 36 Sur 0 -- -- 58
2020-09-08 21:00:00 21.6 23 Sur 40 Sur 0 -- -- 53
2020-09-08 20:00:00 23.2 27 Sur 48 Sur 0 -- -- 47
2020-09-08 19:00:00 25.2 30 Sur 45 Sur 0 -- -- 44
2020-09-08 18:00:00 26 30 Sur 49 Sur 0 -- -- 46
2020-09-08 17:00:00 26.5 31 Sur 46 Sudeste 0 -- -- 44
2020-09-08 16:00:00 26.9 29 Sur 50 Sur 0 -- -- 45
2020-09-08 15:00:00 27.4 30 Sur 48 Sur 0 -- -- 42
2020-09-08 14:00:00 27 33 Sur 56 Sur 0 -- -- 43
2020-09-08 13:00:00 26.2 33 Sur 53 Sur 0 -- -- 44
2020-09-08 12:00:00 25.3 35 Sur 50 Sur 0 -- -- 47
2020-09-08 11:00:00 24.2 30 Sur 52 Sur 0 -- -- 53
2020-09-08 10:00:00 22.6 28 Sur 47 Sur 0 -- -- 62
2020-09-08 09:00:00 21.2 28 Sur 44 Sur 0 -- -- 67
2020-09-08 08:00:00 20.3 19 Sur 37 Sur 0 -- -- 78
2020-09-08 07:00:00 20.4 24 Sur 46 Sur 0 -- -- 78
2020-09-08 06:00:00 20.7 28 Sur 49 Sur 0 -- -- 79
2020-09-08 05:00:00 20.6 31 Sur 44 Sur 0 -- -- 78
2020-09-08 04:00:00 20.7 26 Sur 42 Sur 0 -- -- 75
2020-09-08 03:00:00 21 19 Sur 45 Sur 0 -- -- 74
2020-09-08 02:00:00 21.1 23 Sur 38 Sur 0 -- -- 76
2020-09-08 01:00:00 21.9 11 Sur 22 Sur 0 -- -- 69
2020-09-08 00:00:00 23.5 11 Sur 20 Sur 0 -- -- 58
2020-09-07 23:00:00 25.2 13 Sur 18 Sur 0 -- -- 48
2020-09-07 22:00:00 27.2 8 Sur 16 Oeste 0 -- -- 35
2020-09-07 21:00:00 30.4 7 Noroeste 11 Oeste 0 -- -- 27
2020-09-07 20:00:00 32.7 8 Noroeste 22 Oeste 0 -- -- 24
2020-09-07 19:00:00 34.4 9 Noroeste 27 Oeste 0 -- -- 21
2020-09-07 18:00:00 34.2 13 Noroeste 32 Sudoeste 0 -- -- 22
2020-09-07 17:00:00 33.8 13 Norte 27 Noroeste 0 -- -- 25
2020-09-07 16:00:00 33.9 12 Noroeste 25 Noroeste 0 -- -- 26
2020-09-07 15:00:00 33.8 11 Norte 19 Noroeste 0 -- -- 30
2020-09-07 14:00:00 32.4 9 Norte 17 Noroeste 0 -- -- 32
2020-09-07 13:00:00 31.2 6 Norte 13 Norte 0 -- -- 35
2020-09-07 12:00:00 27.5 3 Oeste 9 Sudoeste 0 -- -- 45
2020-09-07 11:00:00 24.4 5 Oeste 8 Oeste 0 -- -- 55
2020-09-07 10:00:00 21 3 Noroeste 6 Sur 0 -- -- 69
2020-09-07 09:00:00 18.3 2 Sur 7 Norte 0 -- -- 80
2020-09-07 08:00:00 16.7 4 Sudoeste 10 Sur 0 -- -- 83
2020-09-07 07:00:00 17.7 4 Sur 5 Sur 0 -- -- 82
2020-09-07 06:00:00 17.9 2 Sudeste 3 Norte 0 -- -- 82
2020-09-07 05:00:00 18.1 3 Norte 6 Sudoeste 0 -- -- 79
2020-09-07 04:00:00 19 0 Calma 8 Sudoeste 0 -- -- 76
2020-09-07 03:00:00 19.4 5 Sudoeste 16 Sur 0 -- -- 76
2020-09-07 02:00:00 19.2 10 Sur 15 Sur 0 -- -- 75
2020-09-07 01:00:00 19.7 8 Sur 16 Sudoeste 0 -- -- 72
2020-09-07 00:00:00 21.4 13 Sudoeste 26 Sudoeste 0 -- -- 67
2020-09-06 23:00:00 21.5 12 Sur 21 Sur 0 -- -- 68
2020-09-06 22:00:00 22.6 11 Sur 22 Sur 0 -- -- 63
2020-09-06 21:00:00 24.4 16 Sur 27 Sur 0 -- -- 57
2020-09-06 20:00:00 26.9 18 Sur 29 Sur 0 -- -- 46
2020-09-06 19:00:00 29.1 22 Sur 30 Sur 0 -- -- 40
2020-09-06 18:00:00 30.3 17 Sur 28 Sur 0 -- -- 37
2020-09-06 17:00:00 30.3 22 Sur 34 Sur 0 -- -- 38
2020-09-06 16:00:00 29.7 25 Sur 38 Sur 0 -- -- 40
2020-09-06 15:00:00 29.2 26 Sur 42 Sur 0 -- -- 42
2020-09-06 14:00:00 27.9 29 Sur 41 Sur 0 -- -- 45
2020-09-06 13:00:00 27.1 27 Sur 40 Sur 0 -- -- 47
2020-09-06 12:00:00 25.7 26 Sur 37 Sur 0 -- -- 53
2020-09-06 11:00:00 24.6 22 Sur 33 Sur 0 -- -- 58
2020-09-06 10:00:00 22.8 18 Sur 30 Sur 0 -- -- 66
2020-09-06 09:00:00 21.1 18 Sur 33 Sur 0 -- -- 73
2020-09-06 08:00:00 19.5 12 Sur 22 Sur 0 -- -- 80
2020-09-06 07:00:00 19.7 15 Sur 28 Sur 0 -- -- 78
2020-09-06 06:00:00 19.7 17 Sur 28 Sur 0 -- -- 79
2020-09-06 05:00:00 19.7 12 Sur 41 Sur 0 -- -- 79
2020-09-06 04:00:00 20 28 Sur 46 Sur 0 -- -- 76
2020-09-06 03:00:00 20 28 Sur 46 Sur 0 -- -- 76
2020-09-06 02:00:00 20.1 27 Sur 45 Sur 0 -- -- 76
2020-09-06 01:00:00 20.2 31 Sur 47 Sur 0 -- -- 76
2020-09-06 00:00:00 20.3 23 Sur 36 Sur 0 -- -- 73
2020-09-05 23:00:00 20.8 21 Sur 31 Sur 0 -- -- 68
2020-09-05 22:00:00 22.1 22 Sur 32 Sur 0 -- -- 62
2020-09-05 21:00:00 24.1 19 Sur 30 Sur 0 -- -- 51
2020-09-05 20:00:00 26.9 22 Sur 33 Sur 0 -- -- 34
2020-09-05 19:00:00 29 24 Sur 33 Sur 0 -- -- 30
2020-09-05 18:00:00 30.4 21 Sur 36 Sur 0 -- -- 31
2020-09-05 17:00:00 30.3 25 Sur 39 Sur 0 -- -- 33
2020-09-05 16:00:00 30.1 25 Sur 39 Sur 0 -- -- 35
2020-09-05 15:00:00 29.8 21 Sur 37 Sur 0 -- -- 38
2020-09-05 14:00:00 28.5 24 Sur 40 Sur 0 -- -- 42
2020-09-05 13:00:00 27.1 26 Sur 41 Sur 0 -- -- 47
2020-09-05 12:00:00 25.3 28 Sur 39 Sur 0 -- -- 54
2020-09-05 11:00:00 23.6 23 Sur 35 Sur 0 -- -- 61
2020-09-05 10:00:00 22.3 23 Sur 42 Sur 0 -- -- 68
2020-09-05 09:00:00 20.7 22 Sur 34 Sur 0 -- -- 77
2020-09-05 08:00:00 19.5 15 Sur 32 Sur 0 -- -- 80
2020-09-05 07:00:00 19.8 23 Sur 41 Sur 0 -- -- 78
2020-09-05 06:00:00 20 25 Sur 41 Sur 0 -- -- 78
2020-09-05 05:00:00 19.9 24 Sur 45 Sur 0 -- -- 78
2020-09-05 04:00:00 19.9 26 Sur 40 Sur 0 -- -- 78
2020-09-05 03:00:00 19.9 27 Sur 41 Sur 0 -- -- 77
2020-09-05 02:00:00 20 27 Sur 43 Sur 0 -- -- 76
2020-09-05 01:00:00 20.4 25 Sur 38 Sur 0 -- -- 69
2020-09-05 00:00:00 20.9 26 Sur 37 Sur 0 -- -- 71
2020-09-04 23:00:00 21.4 17 Sur 30 Sur 0 -- -- 66
2020-09-04 22:00:00 22.3 20 Sur 32 Sur 0 -- -- 58
2020-09-04 21:00:00 23.5 20 Sur 43 Sur 0 -- -- 50
2020-09-04 20:00:00 25.2 25 Sur 49 Sur 0 -- -- 44
2020-09-04 19:00:00 27 28 Sur 50 Sur 0 -- -- 36
2020-09-04 18:00:00 28.1 32 Sur 49 Sur 0 -- -- 34
2020-09-04 17:00:00 29.1 30 Sur 52 Sur 0 -- -- 30
2020-09-04 16:00:00 29.6 32 Sur 49 Sur 0 -- -- 27
2020-09-04 15:00:00 30.1 28 Sur 48 Sur 0 -- -- 24
2020-09-04 14:00:00 29.5 33 Sur 50 Sur 0 -- -- 23
2020-09-04 13:00:00 28.4 26 Sur 44 Sur 0 -- -- 30
2020-09-04 12:00:00 26.7 23 Sur 37 Sur 0 -- -- 38
2020-09-04 11:00:00 24.4 23 Sur 32 Sudeste 0 -- -- 48
2020-09-04 10:00:00 22.3 21 Sudeste 31 Sur 0 -- -- 60
2020-09-04 09:00:00 20.1 19 Sur 33 Sur 0 -- -- 73
2020-09-04 08:00:00 18.7 17 Sur 29 Sur 0 -- -- 79
2020-09-04 07:00:00 18.7 19 Sur 28 Sur 0 -- -- 81
2020-09-04 06:00:00 18.9 18 Sur 32 Sur 0 -- -- 79
2020-09-04 05:00:00 19.3 23 Sur 36 Sudeste 0 -- -- 75
2020-09-04 04:00:00 19.6 19 Sudeste 42 Sur 0 -- -- 74
2020-09-04 03:00:00 20.1 25 Sur 39 Sudeste 0 -- -- 70
2020-09-04 02:00:00 20.8 18 Sudeste 37 Sudeste 0 -- -- 67
2020-09-04 01:00:00 21.6 18 Sudeste 27 Sudeste 0 -- -- 62
2020-09-04 00:00:00 21.8 11 Sudeste 25 Sudeste 0 -- -- 57
2020-09-03 23:00:00 22.3 11 Sur 27 Sur 0 -- -- 53
2020-09-03 22:00:00 22.7 14 Sur 28 Sur 0 -- -- 55
2020-09-03 21:00:00 23.5 19 Sur 33 Sur 0 -- -- 55
2020-09-03 20:00:00 25.6 20 Sur 36 Sur 0 -- -- 46
2020-09-03 19:00:00 27.5 24 Sur 40 Sur 0 -- -- 39
2020-09-03 18:00:00 28.2 30 Sur 45 Sur 0 -- -- 37
2020-09-03 17:00:00 29.2 28 Sur 51 Sur 0 -- -- 34
2020-09-03 16:00:00 29.8 26 Sur 44 Sur 0 -- -- 36
2020-09-03 15:00:00 29.8 23 Sur 41 Sur 0 -- -- 38
2020-09-03 14:00:00 28.7 27 Sur 41 Sur 0 -- -- 39
2020-09-03 13:00:00 28.1 25 Sur 39 Sur 0 -- -- 42
2020-09-03 12:00:00 26.6 21 Sur 37 Sur 0 -- -- 47
2020-09-03 11:00:00 24.8 17 Sur 27 Sur 0 -- -- 56
2020-09-03 10:00:00 22.5 18 Sur 25 Sur 0 -- -- 64
2020-09-03 09:00:00 20.4 14 Sur 30 Sur 0 -- -- 73
2020-09-03 08:00:00 19 18 Sur 25 Sur 0 -- -- 78
2020-09-03 07:00:00 18.9 14 Sur 20 Sudeste 0 -- -- 76
2020-09-03 06:00:00 19.1 12 Sur 20 Sur 0 -- -- 74
2020-09-03 05:00:00 19.6 12 Sur 21 Sur 0 -- -- 71
2020-09-03 04:00:00 20 13 Sur 21 Sur 0 -- -- 66
2020-09-03 03:00:00 20.5 6 Sur 27 Sudoeste 0 -- -- 61
2020-09-03 02:00:00 20.7 15 Sur 26 Sur 0 -- -- 59
2020-09-03 01:00:00 21.1 17 Sur 28 Sur 0 -- -- 54
2020-09-03 00:00:00 21.4 18 Sur 27 Sur 0 -- -- 48
2020-09-02 23:00:00 21.6 11 Sur 23 Sur 0 -- -- 47
2020-09-02 22:00:00 22.2 14 Sur 22 Sur 0 -- -- 46
2020-09-02 21:00:00 23.7 15 Sur 32 Sur 0 -- -- 40
2020-09-02 20:00:00 25.4 25 Sur 39 Sur 0 -- -- 36
2020-09-02 19:00:00 26.8 26 Sur 42 Sur 0 -- -- 33
2020-09-02 18:00:00 27.7 31 Sur 43 Sur 0 -- -- 34
2020-09-02 17:00:00 29.3 28 Sur 41 Sur 0 -- -- 31
2020-09-02 16:00:00 30.9 20 Sur 32 Sur 0 -- -- 26
2020-09-02 15:00:00 30.5 12 Sudeste 25 Sudeste 0 -- -- 25
2020-09-02 14:00:00 29.7 11 Sur 24 Sudoeste 0 -- -- 26
2020-09-02 13:00:00 28.4 12 Sur 23 Sudoeste 0 -- -- 27
2020-09-02 12:00:00 26.5 12 Sudoeste 22 Sudoeste 0 -- -- 32
2020-09-02 11:00:00 23.1 15 Sur 22 Sur 0 -- -- 45
2020-09-02 10:00:00 19.2 5 Sur 8 Sur 0 -- -- 59
2020-09-02 09:00:00 14.7 3 Sur 5 Sudeste 0 -- -- 67
2020-09-02 08:00:00 12.9 2 Sudoeste 4 Sudoeste 0 -- -- 71
2020-09-02 07:00:00 13.4 0 Calma 5 Noroeste 0 -- -- 70
2020-09-02 06:00:00 13.3 3 Sur 8 Sudeste 0 -- -- 69
2020-09-02 05:00:00 14.3 5 Sur 6 Sur 0 -- -- 66
2020-09-02 04:00:00 15.4 2 Sur 3 Sudeste 0 -- -- 62
2020-09-02 03:00:00 15.3 0 Calma 5 Oeste 0 -- -- 55
2020-09-02 02:00:00 17 0 Calma 6 Sudoeste 0 -- -- 53
2020-09-02 01:00:00 18.7 4 Sudoeste 9 Sur 0 -- -- 52
2020-09-02 00:00:00 19.5 5 Sur 11 Sur 0 -- -- 50
2020-09-01 23:00:00 21.1 6 Sur 15 Sur 0 -- -- 45
2020-09-01 22:00:00 22.5 9 Sur 16 Sur 0 -- -- 41
2020-09-01 21:00:00 24.9 12 Sur 17 Sur 0 -- -- 36
2020-09-01 20:00:00 27.6 11 Sudeste 19 Sudeste 0 -- -- 31
2020-09-01 19:00:00 30.1 4 Sudoeste 14 Sur 0 -- -- 25
2020-09-01 18:00:00 29.5 4 Oeste 13 Sur 0 -- -- 27
2020-09-01 17:00:00 29 6 Sur 11 Sudoeste 0 -- -- 29
2020-09-01 16:00:00 27.6 6 Oeste 12 Oeste 0 -- -- 29
2020-09-01 15:00:00 26.8 5 Sur 17 Sudoeste 0 -- -- 31
2020-09-01 14:00:00 25.4 14 Sudoeste 23 Sudoeste 0 -- -- 33
2020-09-01 13:00:00 25.6 9 Sur 21 Sur 0 -- -- 37
2020-09-01 12:00:00 23.9 9 Sudoeste 21 Sur 0 -- -- 47
2020-09-01 11:00:00 22.8 12 Sur 22 Sur 0 -- -- 55
2020-09-01 10:00:00 19.3 5 Sur 8 Sur 0 -- -- 68
2020-09-01 09:00:00 16.4 3 Sur 5 Sudoeste 0 -- -- 75
2020-09-01 08:00:00 16 0 Calma 12 Sur 0 -- -- 77
2020-09-01 07:00:00 15 7 Sudoeste 12 Sur 0 -- -- 79
2020-09-01 06:00:00 15.3 0 Calma 6 Norte 0 -- -- 76
2020-09-01 05:00:00 16 6 Norte 8 Norte 0 -- -- 73
2020-09-01 04:00:00 17.3 2 Sudeste 10 Sudoeste 0 -- -- 72
2020-09-01 03:00:00 18.1 9 Sudoeste 21 Sudoeste 0 -- -- 68
2020-09-01 02:00:00 19.2 15 Sudoeste 21 Sudoeste 0 -- -- 66
2020-09-01 01:00:00 20 12 Sudoeste 26 Sudoeste 0 -- -- 63
2020-09-01 00:00:00 20.7 16 Sur 29 Sur 0 -- -- 61
2020-08-31 23:00:00 21.1 17 Sur 30 Sur 0 -- -- 60
2020-08-31 22:00:00 21.3 10 Sur 16 Sudoeste 0 -- -- 51
2020-08-31 21:00:00 23 11 Sur 35 Sur 0 -- -- 45
2020-08-31 20:00:00 24.4 25 Sur 42 Sur 0 -- -- 39
2020-08-31 19:00:00 26.3 26 Sur 41 Sur 0 -- -- 34
2020-08-31 18:00:00 27.2 30 Sur 45 Sur 0 -- -- 31
2020-08-31 17:00:00 28.1 29 Sur 44 Sur 0 -- -- 28
2020-08-31 16:00:00 28.1 28 Sur 45 Sur 0 -- -- 33
2020-08-31 15:00:00 28.1 27 Sur 41 Sur 0 -- -- 34
2020-08-31 14:00:00 27.7 27 Sur 42 Sur 0 -- -- 36
2020-08-31 13:00:00 27.1 23 Sur 38 Sur 0 -- -- 38
2020-08-31 12:00:00 25.8 24 Sur 39 Sur 0 -- -- 45
2020-08-31 11:00:00 23.9 17 Sur 42 Sur 0 -- -- 52
2020-08-31 10:00:00 21.9 28 Sur 40 Sudeste 0 -- -- 61
2020-08-31 09:00:00 19.9 18 Sur 32 Sur 0 -- -- 76
2020-08-31 08:00:00 17.6 10 Sur 16 Sur 0 -- -- 86
2020-08-31 07:00:00 17.3 11 Sur 17 Sur 0 -- -- 87
2020-08-31 06:00:00 18.1 10 Sur 21 Sur 0 -- -- 83
2020-08-31 05:00:00 18.6 13 Sur 26 Sur 0 -- -- 79
2020-08-31 04:00:00 18.1 9 Sur 20 Sur 0 -- -- 77
2020-08-31 03:00:00 19 17 Sur 27 Sur 0 -- -- 76
2020-08-31 02:00:00 19.2 9 Sudoeste 18 Sudoeste 0 -- -- 72
2020-08-31 01:00:00 19.5 10 Sudoeste 18 Sudoeste 0 -- -- 67
2020-08-31 00:00:00 19.5 9 Sur 16 Sudoeste 0 -- -- 58
2020-08-30 23:00:00 20.4 9 Sur 13 Sur 0 -- -- 45
2020-08-30 22:00:00 22 9 Sur 21 Sur 0 -- -- 41
2020-08-30 21:00:00 24.1 15 Sur 27 Sur 0 -- -- 35
2020-08-30 20:00:00 26.3 21 Sur 29 Sur 0 -- -- 29
2020-08-30 19:00:00 28.1 10 Sudeste 26 Sur 0 -- -- 24
2020-08-30 18:00:00 29.4 12 Sur 36 Sur 0 -- -- 23
2020-08-30 17:00:00 29.3 11 Sur 26 Sur 0 -- -- 25
2020-08-30 16:00:00 28.7 5 Oeste 23 Noroeste 0 -- -- 26
2020-08-30 15:00:00 28.5 10 Sudoeste 21 Noroeste 0 -- -- 30
2020-08-30 14:00:00 27.7 11 Sur 22 Sudoeste 0 -- -- 27
2020-08-30 13:00:00 26.5 8 Sudoeste 14 Oeste 0 -- -- 29
2020-08-30 12:00:00 23.4 4 Sudoeste 8 Sudoeste 0 -- -- 26
2020-08-30 11:00:00 19.2 0 Calma 4 Noroeste 0 -- -- 34
2020-08-30 10:00:00 17 0 Calma 5 Sudeste 0 -- -- 37
2020-08-30 09:00:00 14.2 2 Sudeste 6 Sudoeste 0 -- -- 43
2020-08-30 08:00:00 12.8 4 Sudoeste 7 Sur 0 -- -- 45
2020-08-30 07:00:00 13.2 6 Sur 8 Sur 0 -- -- 44
2020-08-30 06:00:00 13.9 2 Nordeste 7 Norte 0 -- -- 39
2020-08-30 05:00:00 15.1 4 Norte 8 Sudeste 0 -- -- 38
2020-08-30 04:00:00 16 3 Sur 7 Sur 0 -- -- 39
2020-08-30 03:00:00 16.6 7 Sudeste 12 Nordeste 0 -- -- 34
2020-08-30 02:00:00 18.6 8 Nordeste 17 Noroeste 0 -- -- 29
2020-08-30 01:00:00 19.4 8 Nordeste 14 Norte 0 -- -- 28
2020-08-30 00:00:00 20.9 6 Nordeste 21 Noroeste 0 -- -- 26
2020-08-29 23:00:00 22.5 14 Noroeste 23 Noroeste 0 -- -- 23
2020-08-29 22:00:00 23.5 18 Noroeste 27 Noroeste 0 -- -- 22
2020-08-29 21:00:00 25 21 Noroeste 35 Noroeste 0 -- -- 22
2020-08-29 20:00:00 26.7 23 Noroeste 34 Noroeste 0 -- -- 21
2020-08-29 19:00:00 27 23 Noroeste 36 Noroeste 0 -- -- 21
2020-08-29 18:00:00 26.8 23 Noroeste 41 Noroeste 0 -- -- 19
2020-08-29 17:00:00 26.7 25 Noroeste 43 Noroeste 0 -- -- 20
2020-08-29 16:00:00 25.7 26 Noroeste 45 Noroeste 0 -- -- 22
2020-08-29 15:00:00 24.7 23 Noroeste 47 Noroeste 0 -- -- 23
2020-08-29 14:00:00 23.2 20 Noroeste 39 Noroeste 0 -- -- 29
2020-08-29 13:00:00 22.7 15 Noroeste 36 Noroeste 0 -- -- 33
2020-08-29 12:00:00 21.5 19 Noroeste 31 Noroeste 0 -- -- 36
2020-08-29 11:00:00 19.8 18 Noroeste 26 Noroeste 0 -- -- 44
2020-08-29 10:00:00 18.2 15 Noroeste 27 Noroeste 0 -- -- 48
2020-08-29 09:00:00 17.5 5 Oeste 13 Oeste 0 -- -- 47
2020-08-29 08:00:00 16.3 7 Oeste 11 Oeste 0 -- -- 48
2020-08-29 07:00:00 17 2 Oeste 15 Noroeste 0 -- -- 45
2020-08-29 06:00:00 18.2 9 Noroeste 23 Noroeste 0 -- -- 41
2020-08-29 05:00:00 19.4 14 Noroeste 23 Oeste 0 -- -- 37
2020-08-29 04:00:00 20.7 5 Oeste 13 Oeste 0 -- -- 33
2020-08-29 03:00:00 21.4 9 Noroeste 19 Noroeste 0 -- -- 33
2020-08-29 02:00:00 22.4 8 Oeste 24 Oeste 0 -- -- 46
2020-08-29 01:00:00 23.6 12 Oeste 31 Oeste 0 -- -- 50
2020-08-29 00:00:00 24.9 22 Oeste 37 Oeste 0 -- -- 50
2020-08-28 23:00:00 26.2 25 Oeste 40 Oeste 0 -- -- 47
2020-08-28 22:00:00 27.3 18 Oeste 35 Oeste 0 -- -- 45
2020-08-28 21:00:00 28.5 24 Oeste 43 Oeste 0 -- -- 44
2020-08-28 20:00:00 30.5 28 Oeste 44 Oeste 0 -- -- 37
2020-08-28 19:00:00 32.4 21 Noroeste 39 Oeste 0 -- -- 29
2020-08-28 18:00:00 32.5 21 Noroeste 38 Oeste 0 -- -- 29
2020-08-28 17:00:00 32.9 21 Noroeste 39 Oeste 0 -- -- 27
2020-08-28 16:00:00 32.1 24 Noroeste 37 Noroeste 0 -- -- 34
2020-08-28 15:00:00 31.5 17 Noroeste 36 Noroeste 0 -- -- 36
2020-08-28 14:00:00 31.1 21 Noroeste 34 Noroeste 0 -- -- 31
2020-08-28 13:00:00 30 11 Oeste 27 Oeste 0 -- -- 34
2020-08-28 12:00:00 28.8 13 Noroeste 21 Noroeste 0 -- -- 39
2020-08-28 11:00:00 26.9 12 Noroeste 21 Noroeste 0 -- -- 44
2020-08-28 10:00:00 24.4 15 Norte 23 Noroeste 0 -- -- 51
2020-08-28 09:00:00 20.8 2 Nordeste 6 Norte 0 -- -- 48
2020-08-28 08:00:00 18.5 2 Noroeste 4 Noroeste 0 -- -- 52
2020-08-28 07:00:00 19.7 4 Norte 5 Norte 0 -- -- 47
2020-08-28 06:00:00 20.7 4 Sur 6 Sur 0 -- -- 45
2020-08-28 05:00:00 21.5 4 Sudeste 5 Oeste 0 -- -- 44
2020-08-28 04:00:00 22.9 3 Nordeste 9 Sur 0 -- -- 41
2020-08-28 03:00:00 24.2 7 Sudeste 10 Sudeste 0 -- -- 40
2020-08-28 02:00:00 25.2 7 Sur 12 Sur 0 -- -- 37
2020-08-28 01:00:00 26.6 9 Sur 15 Sur 0 -- -- 34
2020-08-28 00:00:00 26.2 10 Sudeste 17 Sur 0 -- -- 34
2020-08-27 23:00:00 28.3 13 Sur 21 Sur 0 -- -- 29
2020-08-27 22:00:00 30.8 9 Oeste 26 Oeste 0 -- -- 21
2020-08-27 21:00:00 32.9 14 Oeste 35 Oeste 0 -- -- 19
2020-08-27 20:00:00 35.8 19 Oeste 35 Oeste 0 -- -- 16
2020-08-27 19:00:00 37.6 23 Oeste 39 Oeste 0 -- -- 13
2020-08-27 18:00:00 38.6 21 Oeste 41 Oeste 0 -- -- 13
2020-08-27 17:00:00 38.7 18 Noroeste 40 Noroeste 0 -- -- 13
2020-08-27 16:00:00 38.9 18 Noroeste 37 Oeste 0 -- -- 16
2020-08-27 15:00:00 38.5 6 Sur 20 Sur 0 -- -- 16
2020-08-27 14:00:00 37.5 8 Sudoeste 14 Sudoeste 0 -- -- 18
2020-08-27 13:00:00 35.2 4 Sudoeste 12 Sudoeste 0 -- -- 23
2020-08-27 12:00:00 32 4 Sudoeste 9 Sudoeste 0 -- -- 29
2020-08-27 11:00:00 28.7 6 Sudoeste 11 Sudoeste 0 -- -- 39
2020-08-27 10:00:00 24.6 3 Sudoeste 6 Sur 0 -- -- 48
2020-08-27 09:00:00 20.4 3 Sur 5 Sudoeste 0 -- -- 59
2020-08-27 08:00:00 19 3 Sur 5 Sur 0 -- -- 65
2020-08-27 07:00:00 19.4 2 Norte 4 Sur 0 -- -- 64
2020-08-27 06:00:00 20.6 3 Sur 5 Sudeste 0 -- -- 63
2020-08-27 05:00:00 21.6 6 Sur 13 Sudoeste 0 -- -- 60
2020-08-27 04:00:00 22.2 7 Sudoeste 11 Sudoeste 0 -- -- 55
2020-08-27 03:00:00 22.9 4 Sur 12 Sudoeste 0 -- -- 51
2020-08-27 02:00:00 24.6 11 Sudoeste 13 Sur 0 -- -- 51
2020-08-27 01:00:00 25.6 9 Sur 12 Sur 0 -- -- 47
2020-08-27 00:00:00 26.9 10 Sur 13 Sur 0 -- -- 41
2020-08-26 23:00:00 28.2 8 Sur 14 Sur 0 -- -- 36
2020-08-26 22:00:00 30.5 9 Oeste 14 Oeste 0 -- -- 29
2020-08-26 21:00:00 33.4 9 Oeste 19 Noroeste 0 -- -- 22
2020-08-26 20:00:00 36.1 10 Noroeste 25 Noroeste 0 -- -- 19
2020-08-26 19:00:00 37.6 14 Noroeste 28 Noroeste 0 -- -- 17
2020-08-26 18:00:00 38.8 13 Noroeste 27 Noroeste 0 -- -- 16
2020-08-26 17:00:00 39.4 5 Sudoeste 24 Noroeste 0 -- -- 14
2020-08-26 16:00:00 38.7 5 Sudoeste 14 Oeste 0 -- -- 15
2020-08-26 15:00:00 37.2 7 Norte 13 Noroeste 0 -- -- 18
2020-08-26 14:00:00 35.7 7 Oeste 17 Sudeste 0 -- -- 23
2020-08-26 13:00:00 34.3 7 Sudeste 21 Sur 0 -- -- 25
2020-08-26 12:00:00 31.3 8 Sudoeste 12 Sudoeste 0 -- -- 35
2020-08-26 11:00:00 27.5 5 Sudoeste 9 Sudoeste 0 -- -- 43
2020-08-26 10:00:00 23.7 2 Sur 5 Sudoeste 0 -- -- 56
2020-08-26 09:00:00 20.1 3 Sudoeste 5 Sur 0 -- -- 65
2020-08-26 08:00:00 17.9 0 Calma 5 Sudoeste 0 -- -- 65
2020-08-26 07:00:00 18.7 4 Sudeste 5 Sur 0 -- -- 69
2020-08-26 06:00:00 19.2 0 Calma 5 Sur 0 -- -- 65
2020-08-26 05:00:00 19.6 4 Sur 5 Sur 0 -- -- 67
2020-08-26 04:00:00 21.2 5 Sudeste 8 Sudeste 0 -- -- 64
2020-08-26 03:00:00 22.1 2 Norte 6 Oeste 0 -- -- 61
2020-08-26 02:00:00 22.7 5 Oeste 10 Sudoeste 0 -- -- 58
2020-08-26 01:00:00 23 7 Sudoeste 12 Sudoeste 0 -- -- 56
2020-08-26 00:00:00 24.7 10 Sudoeste 15 Sudoeste 0 -- -- 50
2020-08-25 23:00:00 26 10 Sur 21 Sur 0 -- -- 41
2020-08-25 22:00:00 27.8 11 Sur 15 Sur 0 -- -- 35
2020-08-25 21:00:00 30 11 Sur 22 Sudeste 0 -- -- 34
2020-08-25 20:00:00 32.9 18 Sur 26 Sur 0 -- -- 31
2020-08-25 19:00:00 34.5 17 Sudeste 25 Sudeste 0 -- -- 29
2020-08-25 18:00:00 35.5 15 Sudeste 32 Sur 0 -- -- 28
2020-08-25 17:00:00 35.2 21 Sur 32 Sur 0 -- -- 30
2020-08-25 16:00:00 35.4 15 Sur 35 Sur 0 -- -- 28
2020-08-25 15:00:00 34.6 19 Sudeste 33 Sur 0 -- -- 32
2020-08-25 14:00:00 33.4 19 Sur 32 Sur 0 -- -- 37
2020-08-25 13:00:00 32.1 13 Sudeste 24 Sudoeste 0 -- -- 41
2020-08-25 12:00:00 30.3 13 Sur 21 Sur 0 -- -- 47
2020-08-25 11:00:00 27.8 10 Sur 18 Sudoeste 0 -- -- 56
2020-08-25 10:00:00 25.3 6 Sur 14 Sur 0 -- -- 68
2020-08-25 09:00:00 22.7 6 Sur 12 Sudeste 0 -- -- 81
2020-08-25 08:00:00 20.1 5 Sur 9 Sur 0 -- -- 87
2020-08-25 07:00:00 20.5 7 Sur 13 Sur 0 -- -- 86
2020-08-25 06:00:00 21.1 7 Sudoeste 14 Sudoeste 0 -- -- 82
2020-08-25 05:00:00 22 8 Sudoeste 15 Sur 0 -- -- 80
2020-08-25 04:00:00 22.5 11 Sur 19 Sudoeste 0 -- -- 78
2020-08-25 03:00:00 22.6 10 Sur 19 Sur 0 -- -- 77
2020-08-25 02:00:00 23 12 Sudoeste 24 Sudoeste 0 -- -- 77
2020-08-25 01:00:00 23.3 14 Sur 25 Sur 0 -- -- 76
2020-08-25 00:00:00 23.7 11 Sur 21 Sudoeste 0 -- -- 70
2020-08-24 23:00:00 25 15 Sudoeste 20 Sudoeste 0 -- -- 65
2020-08-24 22:00:00 26 12 Sur 27 Sur 0 -- -- 59
2020-08-24 21:00:00 27.8 18 Sur 28 Sur 0 -- -- 52
2020-08-24 20:00:00 30.1 20 Sur 32 Sudoeste 0 -- -- 45
2020-08-24 19:00:00 31.7 21 Sur 33 Sur 0 -- -- 41
2020-08-24 18:00:00 32.9 19 Sur 36 Sudeste 0 -- -- 36
2020-08-24 17:00:00 32.8 23 Sudeste 36 Sur 0 -- -- 39
2020-08-24 16:00:00 32.5 21 Sur 37 Sur 0 -- -- 39
2020-08-24 15:00:00 31.9 24 Sur 42 Sur 0 -- -- 42
2020-08-24 14:00:00 30.9 23 Sur 39 Sur 0 -- -- 44
2020-08-24 13:00:00 30 24 Sur 37 Sur 0 -- -- 47
2020-08-24 12:00:00 28.6 24 Sur 36 Sur 0 -- -- 51
2020-08-24 11:00:00 27.2 21 Sur 32 Sur 0 -- -- 58
2020-08-24 10:00:00 25.3 22 Sur 33 Sur 0 -- -- 65
2020-08-24 09:00:00 23.4 16 Sur 27 Sur 0 -- -- 76
2020-08-24 08:00:00 20.8 11 Sur 19 Sur 0 -- -- 86
2020-08-24 07:00:00 20.5 5 Sudoeste 10 Sur 0 -- -- 83
2020-08-24 06:00:00 20.6 8 Sur 14 Sur 0 -- -- 83
2020-08-24 05:00:00 21.4 8 Sur 16 Sur 0 -- -- 79
2020-08-24 04:00:00 22.2 10 Sudoeste 22 Sur 0 -- -- 76
2020-08-24 03:00:00 22.5 14 Sur 23 Sur 0 -- -- 77
2020-08-24 02:00:00 22.1 7 Sur 14 Sur 0 -- -- 72
2020-08-24 01:00:00 23 9 Sur 15 Sur 0 -- -- 66
2020-08-24 00:00:00 23.9 9 Sur 17 Sudoeste 0 -- -- 61
2020-08-23 23:00:00 25.6 11 Sur 18 Sudoeste 0 -- -- 57
2020-08-23 22:00:00 27.3 9 Sur 20 Sur 0 -- -- 51
2020-08-23 21:00:00 29.7 14 Sur 23 Sur 0 -- -- 44
2020-08-23 20:00:00 32.6 15 Sur 24 Sur 0 -- -- 36
2020-08-23 19:00:00 34.2 17 Sur 28 Sur 0 -- -- 32
2020-08-23 18:00:00 34.7 18 Sur 30 Sur 0 -- -- 32
2020-08-23 17:00:00 35.1 18 Sur 30 Sudeste 0 -- -- 32
2020-08-23 16:00:00 35 19 Sur 34 Sudeste 0 -- -- 30
2020-08-23 15:00:00 35.5 15 Sur 28 Sudeste 0 -- -- 29
2020-08-23 14:00:00 34.6 8 Sudoeste 19 Sur 0 -- -- 27
2020-08-23 13:00:00 33.3 6 Sudoeste 13 Oeste 0 -- -- 23
2020-08-23 12:00:00 31.5 5 Norte 11 Noroeste 0 -- -- 27
2020-08-23 11:00:00 28.2 5 Sudoeste 7 Oeste 0 -- -- 36
2020-08-23 10:00:00 24.5 2 Sudeste 4 Sudeste 0 -- -- 47
2020-08-23 09:00:00 21 0 Calma 5 Norte 0 -- -- 51
2020-08-23 08:00:00 17.7 0 Calma 4 Sur 0 -- -- 57
2020-08-23 07:00:00 18.6 3 Sur 4 Sudoeste 0 -- -- 59
2020-08-23 06:00:00 19.2 0 Calma 5 Sur 0 -- -- 56
2020-08-23 05:00:00 20.2 2 Sur 5 Noroeste 0 -- -- 54
2020-08-23 04:00:00 21.4 0 Calma 6 Sudeste 0 -- -- 49
2020-08-23 03:00:00 23.2 2 Nordeste 9 Sur 0 -- -- 46
2020-08-23 02:00:00 24.2 6 Sur 8 Sur 0 -- -- 46
2020-08-23 01:00:00 26.1 6 Sur 10 Oeste 0 -- -- 42
2020-08-23 00:00:00 26.2 0 Calma 10 Oeste 0 -- -- 39
2020-08-22 23:00:00 27.8 4 Sudeste 8 Norte 0 -- -- 36
2020-08-22 22:00:00 29.9 7 Norte 12 Noroeste 0 -- -- 32
2020-08-22 21:00:00 33.1 10 Noroeste 18 Noroeste 0 -- -- 26
2020-08-22 20:00:00 35.3 12 Noroeste 21 Noroeste 0 -- -- 24
2020-08-22 19:00:00 36.3 9 Noroeste 24 Norte 0 -- -- 25
2020-08-22 18:00:00 36.1 13 Noroeste 21 Noroeste 0 -- -- 25
2020-08-22 17:00:00 35.7 13 Norte 25 Noroeste 0 -- -- 27
2020-08-22 16:00:00 35.4 14 Norte 24 Norte 0 -- -- 30
2020-08-22 15:00:00 34.3 9 Noroeste 22 Noroeste 0 -- -- 33
2020-08-22 14:00:00 33 10 Norte 24 Noroeste 0 -- -- 35
2020-08-22 13:00:00 31.7 9 Norte 25 Noroeste 0 -- -- 40
2020-08-22 12:00:00 30.7 10 Norte 22 Norte 0 -- -- 42
2020-08-22 11:00:00 27.4 4 Sudoeste 9 Sudoeste 0 -- -- 49
2020-08-22 10:00:00 23.5 2 Sudoeste 4 Oeste 0 -- -- 49
2020-08-22 09:00:00 20 0 Calma 3 Sudeste 0 -- -- 57
2020-08-22 08:00:00 16.9 3 Noroeste 5 Sur 0 -- -- 64
2020-08-22 07:00:00 17.3 0 Calma 5 Sudeste 0 -- -- 56
2020-08-22 06:00:00 18.1 0 Calma 8 Noroeste 0 -- -- 56
2020-08-22 05:00:00 19.1 3 Noroeste 5 Norte 0 -- -- 50
2020-08-22 04:00:00 19.8 0 Calma 5 Sur 0 -- -- 58
2020-08-22 03:00:00 20.3 5 Sur 7 Sur 0 -- -- 51
2020-08-22 02:00:00 22 0 Calma 9 Oeste 0 -- -- 42
2020-08-22 01:00:00 23.8 3 Sudeste 9 Oeste 0 -- -- 43
2020-08-22 00:00:00 24.7 5 Norte 10 Noroeste 0 -- -- 32
2020-08-21 23:00:00 26.6 0 Calma 12 Noroeste 0 -- -- 31
2020-08-21 22:00:00 27.7 10 Noroeste 14 Noroeste 0 -- -- 25
2020-08-21 21:00:00 31.8 11 Noroeste 19 Oeste 0 -- -- 21
2020-08-21 20:00:00 34.3 12 Noroeste 24 Oeste 0 -- -- 21
2020-08-21 19:00:00 34.9 15 Norte 31 Noroeste 0 -- -- 22
2020-08-21 18:00:00 35.5 15 Norte 30 Norte 0 -- -- 21
2020-08-21 17:00:00 35.5 10 Oeste 25 Noroeste 0 -- -- 19
2020-08-21 16:00:00 35.5 10 Noroeste 24 Oeste 0 -- -- 15
2020-08-21 15:00:00 34.9 7 Norte 23 Norte 0 -- -- 11
2020-08-21 14:00:00 34.1 9 Noroeste 22 Noroeste 0 -- -- 11
2020-08-21 13:00:00 32.1 6 Oeste 14 Oeste 0 -- -- 12
2020-08-21 12:00:00 30.2 3 Norte 12 Norte 0 -- -- 16
2020-08-21 11:00:00 27 4 Nordeste 8 Norte 0 -- -- 21
2020-08-21 10:00:00 21.4 2 Sur 5 Sudeste 0 -- -- 26
2020-08-21 09:00:00 16.3 2 Noroeste 4 Noroeste 0 -- -- 37
2020-08-21 08:00:00 14.8 0 Calma 3 Sur 0 -- -- 40
2020-08-21 07:00:00 15.4 0 Calma 4 Sudoeste 0 -- -- 41
2020-08-21 06:00:00 16.1 3 Norte 8 Norte 0 -- -- 37
2020-08-21 05:00:00 17.2 3 Sur 4 Sur 0 -- -- 37
2020-08-21 04:00:00 17.5 3 Sur 7 Noroeste 0 -- -- 36
2020-08-21 03:00:00 19 2 Este 7 Noroeste 0 -- -- 32
2020-08-21 02:00:00 21.3 2 Sur 3 Sur 0 -- -- 29
2020-08-21 01:00:00 24 3 Nordeste 10 Sudoeste 0 -- -- 26
2020-08-21 00:00:00 26.2 9 Sudoeste 16 Sudoeste 0 -- -- 21
2020-08-20 23:00:00 27.6 8 Sudoeste 18 Oeste 0 -- -- 19
2020-08-20 22:00:00 28.6 3 Oeste 22 Oeste 0 -- -- 18
2020-08-20 21:00:00 31.1 12 Oeste 33 Oeste 0 -- -- 18
2020-08-20 20:00:00 34.3 24 Noroeste 35 Oeste 0 -- -- 17
2020-08-20 19:00:00 36.6 14 Sudeste 26 Sudeste 0 -- -- 17
2020-08-20 18:00:00 36.8 17 Sur 28 Sur 0 -- -- 16
2020-08-20 17:00:00 37.1 15 Sudeste 33 Sur 0 -- -- 16
2020-08-20 16:00:00 37.1 19 Sur 33 Sudeste 0 -- -- 18
2020-08-20 15:00:00 37.2 13 Sudoeste 29 Sur 0 -- -- 17
2020-08-20 14:00:00 35.4 10 Sudoeste 24 Sudoeste 0 -- -- 19
2020-08-20 13:00:00 33.3 10 Oeste 15 Sudoeste 0 -- -- 18
2020-08-20 12:00:00 30.9 5 Sudoeste 9 Sudoeste 0 -- -- 23
2020-08-20 11:00:00 27.2 5 Sudoeste 8 Sudoeste 0 -- -- 27
2020-08-20 10:00:00 23.2 6 Sudoeste 9 Sudoeste 0 -- -- 33
2020-08-20 09:00:00 20 3 Sur 6 Noroeste 0 -- -- 41
2020-08-20 08:00:00 17.3 3 Norte 5 Noroeste 0 -- -- 43
2020-08-20 07:00:00 17.6 3 Noroeste 6 Norte 0 -- -- 44
2020-08-20 06:00:00 18.6 2 Sur 6 Sur 0 -- -- 42
2020-08-20 05:00:00 18.8 2 Nordeste 6 Sur 0 -- -- 40
2020-08-20 04:00:00 19.9 3 Sudeste 9 Oeste 0 -- -- 41
2020-08-20 03:00:00 21.1 5 Noroeste 8 Norte 0 -- -- 36
2020-08-20 02:00:00 22.6 5 Sudeste 6 Sudeste 0 -- -- 35
2020-08-20 01:00:00 23.7 4 Sudoeste 8 Sur 0 -- -- 32
2020-08-20 00:00:00 25.3 5 Sudoeste 12 Sur 0 -- -- 29